sensor_id;sensor_type;location;lat;lon;timestamp;P1;durP1;ratioP1;P2;durP2;ratioP2
14681;SDS011;7429;52.498;13.480;2023-04-09T00:01:56;48.70;;;33.27;;
14681;SDS011;7429;52.498;13.480;2023-04-09T00:05:00;47.80;;;32.83;;
14681;SDS011;7429;52.498;13.480;2023-04-09T00:08:03;52.70;;;35.37;;
14681;SDS011;7429;52.498;13.480;2023-04-09T00:11:06;46.17;;;32.40;;
14681;SDS011;7429;52.498;13.480;2023-04-09T00:14:11;52.00;;;34.10;;
14681;SDS011;7429;52.498;13.480;2023-04-09T00:17:14;50.13;;;34.23;;
14681;SDS011;7429;52.498;13.480;2023-04-09T00:20:17;54.00;;;35.63;;
14681;SDS011;7429;52.498;13.480;2023-04-09T00:23:20;50.90;;;33.43;;
14681;SDS011;7429;52.498;13.480;2023-04-09T00:26:23;51.87;;;35.37;;
14681;SDS011;7429;52.498;13.480;2023-04-09T00:29:28;56.77;;;36.40;;
14681;SDS011;7429;52.498;13.480;2023-04-09T00:32:31;57.63;;;35.83;;
14681;SDS011;7429;52.498;13.480;2023-04-09T00:35:35;50.10;;;34.13;;
14681;SDS011;7429;52.498;13.480;2023-04-09T00:38:38;61.13;;;38.07;;
14681;SDS011;7429;52.498;13.480;2023-04-09T00:41:41;55.63;;;34.83;;
14681;SDS011;7429;52.498;13.480;2023-04-09T00:44:45;54.60;;;37.70;;
14681;SDS011;7429;52.498;13.480;2023-04-09T00:47:50;53.20;;;35.93;;
14681;SDS011;7429;52.498;13.480;2023-04-09T00:50:54;55.60;;;36.33;;
14681;SDS011;7429;52.498;13.480;2023-04-09T00:53:57;50.80;;;34.20;;
14681;SDS011;7429;52.498;13.480;2023-04-09T00:57:00;50.90;;;34.47;;
14681;SDS011;7429;52.498;13.480;2023-04-09T01:00:10;53.03;;;36.43;;
14681;SDS011;7429;52.498;13.480;2023-04-09T01:03:15;50.90;;;35.20;;
14681;SDS011;7429;52.498;13.480;2023-04-09T01:06:21;49.70;;;36.63;;
14681;SDS011;7429;52.498;13.480;2023-04-09T01:09:29;51.23;;;34.87;;
14681;SDS011;7429;52.498;13.480;2023-04-09T01:12:42;54.17;;;34.93;;
14681;SDS011;7429;52.498;13.480;2023-04-09T01:15:58;52.13;;;33.80;;
14681;SDS011;7429;52.498;13.480;2023-04-09T01:19:07;55.97;;;34.90;;
14681;SDS011;7429;52.498;13.480;2023-04-09T01:22:24;53.00;;;34.93;;
14681;SDS011;7429;52.498;13.480;2023-04-09T01:25:39;49.07;;;34.00;;
14681;SDS011;7429;52.498;13.480;2023-04-09T01:28:56;52.37;;;32.53;;
14681;SDS011;7429;52.498;13.480;2023-04-09T01:32:02;59.33;;;36.67;;
14681;SDS011;7429;52.498;13.480;2023-04-09T01:35:09;53.63;;;34.30;;
14681;SDS011;7429;52.498;13.480;2023-04-09T01:38:14;50.70;;;33.30;;
14681;SDS011;7429;52.498;13.480;2023-04-09T01:41:21;53.87;;;35.43;;
14681;SDS011;7429;52.498;13.480;2023-04-09T01:44:27;54.73;;;34.50;;
14681;SDS011;7429;52.498;13.480;2023-04-09T01:47:32;52.33;;;34.47;;
14681;SDS011;7429;52.498;13.480;2023-04-09T01:50:36;53.10;;;34.43;;
14681;SDS011;7429;52.498;13.480;2023-04-09T01:53:39;51.97;;;32.13;;
14681;SDS011;7429;52.498;13.480;2023-04-09T01:56:43;56.37;;;34.20;;
14681;SDS011;7429;52.498;13.480;2023-04-09T01:59:50;57.30;;;36.97;;
14681;SDS011;7429;52.498;13.480;2023-04-09T02:02:54;53.87;;;34.97;;
14681;SDS011;7429;52.498;13.480;2023-04-09T02:06:03;53.90;;;34.87;;
14681;SDS011;7429;52.498;13.480;2023-04-09T02:09:15;59.80;;;36.60;;
14681;SDS011;7429;52.498;13.480;2023-04-09T02:12:20;58.83;;;36.00;;
14681;SDS011;7429;52.498;13.480;2023-04-09T02:15:25;60.47;;;37.57;;
14681;SDS011;7429;52.498;13.480;2023-04-09T02:18:32;55.97;;;37.77;;
14681;SDS011;7429;52.498;13.480;2023-04-09T02:21:35;55.43;;;36.33;;
14681;SDS011;7429;52.498;13.480;2023-04-09T02:24:38;57.30;;;37.57;;
14681;SDS011;7429;52.498;13.480;2023-04-09T02:27:41;58.43;;;35.70;;
14681;SDS011;7429;52.498;13.480;2023-04-09T02:30:46;57.83;;;36.67;;
14681;SDS011;7429;52.498;13.480;2023-04-09T02:33:50;54.93;;;35.53;;
14681;SDS011;7429;52.498;13.480;2023-04-09T02:36:55;58.20;;;38.33;;
14681;SDS011;7429;52.498;13.480;2023-04-09T02:39:58;53.83;;;36.53;;
14681;SDS011;7429;52.498;13.480;2023-04-09T02:43:01;56.73;;;34.53;;
14681;SDS011;7429;52.498;13.480;2023-04-09T02:46:05;56.67;;;36.13;;
14681;SDS011;7429;52.498;13.480;2023-04-09T02:49:10;56.77;;;36.43;;
14681;SDS011;7429;52.498;13.480;2023-04-09T02:52:13;53.20;;;34.60;;
14681;SDS011;7429;52.498;13.480;2023-04-09T02:55:16;59.80;;;37.37;;
14681;SDS011;7429;52.498;13.480;2023-04-09T02:58:20;57.47;;;35.73;;
14681;SDS011;7429;52.498;13.480;2023-04-09T03:01:25;54.70;;;36.33;;
14681;SDS011;7429;52.498;13.480;2023-04-09T03:04:28;55.27;;;36.27;;
14681;SDS011;7429;52.498;13.480;2023-04-09T03:07:31;56.63;;;35.43;;
14681;SDS011;7429;52.498;13.480;2023-04-09T03:10:34;54.50;;;37.00;;
14681;SDS011;7429;52.498;13.480;2023-04-09T03:13:37;55.37;;;35.77;;
14681;SDS011;7429;52.498;13.480;2023-04-09T03:16:41;62.00;;;38.83;;
14681;SDS011;7429;52.498;13.480;2023-04-09T03:19:44;52.43;;;34.70;;
14681;SDS011;7429;52.498;13.480;2023-04-09T03:22:49;57.17;;;36.00;;
14681;SDS011;7429;52.498;13.480;2023-04-09T03:26:10;61.70;;;40.30;;
14681;SDS011;7429;52.498;13.480;2023-04-09T03:29:19;57.67;;;36.53;;
14681;SDS011;7429;52.498;13.480;2023-04-09T03:32:24;65.33;;;40.33;;
14681;SDS011;7429;52.498;13.480;2023-04-09T03:35:28;70.90;;;44.70;;
14681;SDS011;7429;52.498;13.480;2023-04-09T03:38:33;72.00;;;42.50;;
14681;SDS011;7429;52.498;13.480;2023-04-09T03:41:43;66.83;;;41.70;;
14681;SDS011;7429;52.498;13.480;2023-04-09T03:44:52;64.73;;;40.83;;
14681;SDS011;7429;52.498;13.480;2023-04-09T03:48:10;65.47;;;40.77;;
14681;SDS011;7429;52.498;13.480;2023-04-09T03:51:13;69.73;;;42.07;;
14681;SDS011;7429;52.498;13.480;2023-04-09T03:54:22;69.20;;;42.13;;
14681;SDS011;7429;52.498;13.480;2023-04-09T03:57:27;66.87;;;42.27;;
14681;SDS011;7429;52.498;13.480;2023-04-09T04:00:31;75.63;;;45.53;;
14681;SDS011;7429;52.498;13.480;2023-04-09T04:03:56;73.63;;;44.00;;
14681;SDS011;7429;52.498;13.480;2023-04-09T04:07:05;74.33;;;43.77;;
14681;SDS011;7429;52.498;13.480;2023-04-09T04:10:13;71.40;;;44.53;;
14681;SDS011;7429;52.498;13.480;2023-04-09T04:13:19;68.43;;;43.63;;
14681;SDS011;7429;52.498;13.480;2023-04-09T04:16:29;67.47;;;42.87;;
14681;SDS011;7429;52.498;13.480;2023-04-09T04:19:37;63.60;;;42.03;;
14681;SDS011;7429;52.498;13.480;2023-04-09T04:22:40;65.33;;;38.93;;
14681;SDS011;7429;52.498;13.480;2023-04-09T04:25:43;54.60;;;35.73;;
14681;SDS011;7429;52.498;13.480;2023-04-09T04:28:51;56.00;;;35.97;;
14681;SDS011;7429;52.498;13.480;2023-04-09T04:32:07;54.67;;;33.50;;
14681;SDS011;7429;52.498;13.480;2023-04-09T04:35:12;60.40;;;35.80;;
14681;SDS011;7429;52.498;13.480;2023-04-09T04:38:16;86.23;;;35.03;;
14681;SDS011;7429;52.498;13.480;2023-04-09T04:41:19;81.93;;;37.30;;
14681;SDS011;7429;52.498;13.480;2023-04-09T04:44:30;83.30;;;36.73;;
14681;SDS011;7429;52.498;13.480;2023-04-09T04:47:43;62.03;;;35.13;;
14681;SDS011;7429;52.498;13.480;2023-04-09T04:50:54;84.97;;;39.43;;
14681;SDS011;7429;52.498;13.480;2023-04-09T04:54:08;86.33;;;38.70;;
14681;SDS011;7429;52.498;13.480;2023-04-09T04:57:12;64.77;;;38.20;;
14681;SDS011;7429;52.498;13.480;2023-04-09T05:00:15;70.77;;;39.37;;
14681;SDS011;7429;52.498;13.480;2023-04-09T05:03:20;84.70;;;39.37;;
14681;SDS011;7429;52.498;13.480;2023-04-09T05:06:34;65.00;;;37.60;;
14681;SDS011;7429;52.498;13.480;2023-04-09T05:09:47;76.20;;;39.13;;
14681;SDS011;7429;52.498;13.480;2023-04-09T05:12:50;63.67;;;37.60;;
14681;SDS011;7429;52.498;13.480;2023-04-09T05:16:02;67.67;;;38.73;;
14681;SDS011;7429;52.498;13.480;2023-04-09T05:19:07;84.20;;;38.03;;
14681;SDS011;7429;52.498;13.480;2023-04-09T05:22:14;78.77;;;38.13;;
14681;SDS011;7429;52.498;13.480;2023-04-09T05:25:19;64.90;;;35.60;;
14681;SDS011;7429;52.498;13.480;2023-04-09T05:28:22;80.20;;;39.47;;
14681;SDS011;7429;52.498;13.480;2023-04-09T05:31:39;78.20;;;37.50;;
14681;SDS011;7429;52.498;13.480;2023-04-09T05:34:51;83.80;;;38.93;;
14681;SDS011;7429;52.498;13.480;2023-04-09T05:37:57;72.53;;;36.87;;
14681;SDS011;7429;52.498;13.480;2023-04-09T05:41:00;78.57;;;40.30;;
14681;SDS011;7429;52.498;13.480;2023-04-09T05:44:03;73.23;;;39.43;;
14681;SDS011;7429;52.498;13.480;2023-04-09T05:47:07;84.07;;;41.37;;
14681;SDS011;7429;52.498;13.480;2023-04-09T05:50:28;86.57;;;41.83;;
14681;SDS011;7429;52.498;13.480;2023-04-09T05:53:50;78.87;;;40.90;;
14681;SDS011;7429;52.498;13.480;2023-04-09T05:56:54;92.17;;;41.07;;
14681;SDS011;7429;52.498;13.480;2023-04-09T05:59:57;73.30;;;40.27;;
14681;SDS011;7429;52.498;13.480;2023-04-09T06:03:01;90.50;;;43.03;;
14681;SDS011;7429;52.498;13.480;2023-04-09T06:06:07;83.83;;;41.03;;
14681;SDS011;7429;52.498;13.480;2023-04-09T06:09:12;84.43;;;42.90;;
14681;SDS011;7429;52.498;13.480;2023-04-09T06:12:15;75.53;;;40.67;;
14681;SDS011;7429;52.498;13.480;2023-04-09T06:15:18;72.27;;;40.87;;
14681;SDS011;7429;52.498;13.480;2023-04-09T06:18:21;75.63;;;39.80;;
14681;SDS011;7429;52.498;13.480;2023-04-09T06:21:25;72.10;;;39.87;;
14681;SDS011;7429;52.498;13.480;2023-04-09T06:24:31;79.77;;;41.23;;
14681;SDS011;7429;52.498;13.480;2023-04-09T06:27:34;77.10;;;41.70;;
14681;SDS011;7429;52.498;13.480;2023-04-09T06:30:37;79.63;;;42.07;;
14681;SDS011;7429;52.498;13.480;2023-04-09T06:33:40;86.23;;;44.27;;
14681;SDS011;7429;52.498;13.480;2023-04-09T06:36:43;90.37;;;46.23;;
14681;SDS011;7429;52.498;13.480;2023-04-09T06:39:47;81.03;;;43.97;;
14681;SDS011;7429;52.498;13.480;2023-04-09T06:43:01;81.00;;;42.97;;
14681;SDS011;7429;52.498;13.480;2023-04-09T06:46:12;75.93;;;42.83;;
14681;SDS011;7429;52.498;13.480;2023-04-09T06:49:17;80.03;;;42.10;;
14681;SDS011;7429;52.498;13.480;2023-04-09T06:52:20;76.70;;;41.77;;
14681;SDS011;7429;52.498;13.480;2023-04-09T06:55:25;79.47;;;43.47;;
14681;SDS011;7429;52.498;13.480;2023-04-09T06:58:28;84.37;;;43.83;;
14681;SDS011;7429;52.498;13.480;2023-04-09T07:01:31;75.80;;;42.30;;
14681;SDS011;7429;52.498;13.480;2023-04-09T07:04:36;63.93;;;41.50;;
14681;SDS011;7429;52.498;13.480;2023-04-09T07:07:39;76.40;;;42.77;;
14681;SDS011;7429;52.498;13.480;2023-04-09T07:10:43;71.03;;;41.60;;
14681;SDS011;7429;52.498;13.480;2023-04-09T07:13:47;73.43;;;42.27;;
14681;SDS011;7429;52.498;13.480;2023-04-09T07:16:54;70.93;;;42.27;;
14681;SDS011;7429;52.498;13.480;2023-04-09T07:19:57;73.77;;;43.27;;
14681;SDS011;7429;52.498;13.480;2023-04-09T07:23:00;74.67;;;40.67;;
14681;SDS011;7429;52.498;13.480;2023-04-09T07:26:05;63.67;;;41.13;;
14681;SDS011;7429;52.498;13.480;2023-04-09T07:29:08;72.47;;;41.93;;
14681;SDS011;7429;52.498;13.480;2023-04-09T07:32:11;67.57;;;40.27;;
14681;SDS011;7429;52.498;13.480;2023-04-09T07:35:14;72.17;;;40.53;;
14681;SDS011;7429;52.498;13.480;2023-04-09T07:38:19;68.93;;;39.83;;
14681;SDS011;7429;52.498;13.480;2023-04-09T07:41:23;72.43;;;41.93;;
14681;SDS011;7429;52.498;13.480;2023-04-09T07:44:26;66.60;;;39.40;;
14681;SDS011;7429;52.498;13.480;2023-04-09T07:47:29;66.07;;;39.70;;
14681;SDS011;7429;52.498;13.480;2023-04-09T07:50:33;71.40;;;39.37;;
14681;SDS011;7429;52.498;13.480;2023-04-09T07:53:36;63.30;;;40.97;;
14681;SDS011;7429;52.498;13.480;2023-04-09T07:56:41;64.00;;;37.50;;
14681;SDS011;7429;52.498;13.480;2023-04-09T07:59:44;60.27;;;36.13;;
14681;SDS011;7429;52.498;13.480;2023-04-09T08:02:47;63.43;;;39.00;;
14681;SDS011;7429;52.498;13.480;2023-04-09T08:05:53;65.27;;;40.00;;
14681;SDS011;7429;52.498;13.480;2023-04-09T08:08:56;66.77;;;39.77;;
14681;SDS011;7429;52.498;13.480;2023-04-09T08:12:01;63.70;;;39.47;;
14681;SDS011;7429;52.498;13.480;2023-04-09T08:15:05;63.17;;;39.73;;
14681;SDS011;7429;52.498;13.480;2023-04-09T08:18:09;65.83;;;38.33;;
14681;SDS011;7429;52.498;13.480;2023-04-09T08:21:12;61.73;;;38.60;;
14681;SDS011;7429;52.498;13.480;2023-04-09T08:24:15;66.87;;;38.60;;
14681;SDS011;7429;52.498;13.480;2023-04-09T08:27:20;64.90;;;39.53;;
14681;SDS011;7429;52.498;13.480;2023-04-09T08:30:23;66.03;;;38.67;;
14681;SDS011;7429;52.498;13.480;2023-04-09T08:33:26;64.67;;;39.20;;
14681;SDS011;7429;52.498;13.480;2023-04-09T08:36:30;62.33;;;36.60;;
14681;SDS011;7429;52.498;13.480;2023-04-09T08:39:35;58.63;;;35.93;;
14681;SDS011;7429;52.498;13.480;2023-04-09T08:42:42;59.70;;;35.93;;
14681;SDS011;7429;52.498;13.480;2023-04-09T08:45:46;55.83;;;35.57;;
14681;SDS011;7429;52.498;13.480;2023-04-09T08:48:50;61.50;;;37.83;;
14681;SDS011;7429;52.498;13.480;2023-04-09T08:51:54;64.40;;;40.43;;
14681;SDS011;7429;52.498;13.480;2023-04-09T08:54:57;64.30;;;39.93;;
14681;SDS011;7429;52.498;13.480;2023-04-09T08:58:04;59.30;;;38.20;;
14681;SDS011;7429;52.498;13.480;2023-04-09T09:01:21;58.77;;;38.57;;
14681;SDS011;7429;52.498;13.480;2023-04-09T09:04:26;56.57;;;36.23;;
14681;SDS011;7429;52.498;13.480;2023-04-09T09:07:51;56.47;;;36.23;;
14681;SDS011;7429;52.498;13.480;2023-04-09T09:10:55;53.77;;;36.33;;
14681;SDS011;7429;52.498;13.480;2023-04-09T09:14:01;58.97;;;37.83;;
14681;SDS011;7429;52.498;13.480;2023-04-09T09:17:05;54.57;;;37.50;;
14681;SDS011;7429;52.498;13.480;2023-04-09T09:20:17;55.77;;;36.57;;
14681;SDS011;7429;52.498;13.480;2023-04-09T09:23:31;51.27;;;34.83;;
14681;SDS011;7429;52.498;13.480;2023-04-09T09:26:37;57.23;;;36.23;;
14681;SDS011;7429;52.498;13.480;2023-04-09T09:29:42;52.80;;;35.07;;
14681;SDS011;7429;52.498;13.480;2023-04-09T09:32:46;49.37;;;35.63;;
14681;SDS011;7429;52.498;13.480;2023-04-09T09:35:53;54.60;;;36.03;;
14681;SDS011;7429;52.498;13.480;2023-04-09T09:38:59;52.57;;;35.77;;
14681;SDS011;7429;52.498;13.480;2023-04-09T09:42:06;51.67;;;34.03;;
14681;SDS011;7429;52.498;13.480;2023-04-09T09:45:17;51.20;;;36.40;;
14681;SDS011;7429;52.498;13.480;2023-04-09T09:48:20;51.57;;;34.00;;
14681;SDS011;7429;52.498;13.480;2023-04-09T09:51:24;51.87;;;34.40;;
14681;SDS011;7429;52.498;13.480;2023-04-09T09:54:34;50.10;;;35.13;;
14681;SDS011;7429;52.498;13.480;2023-04-09T09:57:43;45.50;;;33.13;;
14681;SDS011;7429;52.498;13.480;2023-04-09T10:00:52;46.37;;;32.97;;
14681;SDS011;7429;52.498;13.480;2023-04-09T10:03:58;46.73;;;33.70;;
14681;SDS011;7429;52.498;13.480;2023-04-09T10:07:03;45.90;;;31.37;;
14681;SDS011;7429;52.498;13.480;2023-04-09T10:10:08;42.23;;;30.70;;
14681;SDS011;7429;52.498;13.480;2023-04-09T10:13:13;44.63;;;31.80;;
14681;SDS011;7429;52.498;13.480;2023-04-09T10:16:24;44.83;;;30.30;;
14681;SDS011;7429;52.498;13.480;2023-04-09T10:19:28;42.03;;;30.17;;
14681;SDS011;7429;52.498;13.480;2023-04-09T10:22:32;43.53;;;30.13;;
14681;SDS011;7429;52.498;13.480;2023-04-09T10:25:37;44.80;;;32.80;;
14681;SDS011;7429;52.498;13.480;2023-04-09T10:28:40;40.73;;;30.17;;
14681;SDS011;7429;52.498;13.480;2023-04-09T10:32:03;39.50;;;28.80;;
14681;SDS011;7429;52.498;13.480;2023-04-09T10:35:08;43.60;;;31.13;;
14681;SDS011;7429;52.498;13.480;2023-04-09T10:38:12;43.70;;;33.13;;
14681;SDS011;7429;52.498;13.480;2023-04-09T10:41:20;41.57;;;30.53;;
14681;SDS011;7429;52.498;13.480;2023-04-09T10:44:26;39.10;;;27.40;;
14681;SDS011;7429;52.498;13.480;2023-04-09T10:47:34;42.07;;;29.30;;
14681;SDS011;7429;52.498;13.480;2023-04-09T10:50:38;40.17;;;27.33;;
14681;SDS011;7429;52.498;13.480;2023-04-09T10:53:44;38.30;;;26.07;;
14681;SDS011;7429;52.498;13.480;2023-04-09T11:00:13;37.97;;;27.40;;
14681;SDS011;7429;52.498;13.480;2023-04-09T11:03:24;33.43;;;24.87;;
14681;SDS011;7429;52.498;13.480;2023-04-09T11:06:30;34.37;;;25.40;;
14681;SDS011;7429;52.498;13.480;2023-04-09T11:09:37;35.63;;;26.27;;
14681;SDS011;7429;52.498;13.480;2023-04-09T11:12:42;34.37;;;26.10;;
14681;SDS011;7429;52.498;13.480;2023-04-09T11:15:48;35.20;;;26.33;;
14681;SDS011;7429;52.498;13.480;2023-04-09T11:18:52;37.97;;;27.27;;
14681;SDS011;7429;52.498;13.480;2023-04-09T11:21:56;38.10;;;31.70;;
14681;SDS011;7429;52.498;13.480;2023-04-09T11:25:00;37.50;;;29.73;;
14681;SDS011;7429;52.498;13.480;2023-04-09T11:28:03;43.00;;;33.60;;
14681;SDS011;7429;52.498;13.480;2023-04-09T11:31:08;47.80;;;34.30;;
14681;SDS011;7429;52.498;13.480;2023-04-09T11:34:13;37.73;;;28.07;;
14681;SDS011;7429;52.498;13.480;2023-04-09T11:37:17;37.53;;;28.00;;
14681;SDS011;7429;52.498;13.480;2023-04-09T11:40:21;34.60;;;25.30;;
14681;SDS011;7429;52.498;13.480;2023-04-09T11:43:26;31.23;;;23.60;;
14681;SDS011;7429;52.498;13.480;2023-04-09T11:46:29;33.03;;;24.37;;
14681;SDS011;7429;52.498;13.480;2023-04-09T11:49:35;30.37;;;23.97;;
14681;SDS011;7429;52.498;13.480;2023-04-09T11:52:38;29.87;;;22.20;;
14681;SDS011;7429;52.498;13.480;2023-04-09T11:55:42;29.40;;;22.30;;
14681;SDS011;7429;52.498;13.480;2023-04-09T11:58:49;31.77;;;23.93;;
14681;SDS011;7429;52.498;13.480;2023-04-09T12:01:53;33.67;;;23.55;;
14681;SDS011;7429;52.498;13.480;2023-04-09T12:05:02;29.97;;;23.50;;
14681;SDS011;7429;52.498;13.480;2023-04-09T12:08:07;28.23;;;21.97;;
14681;SDS011;7429;52.498;13.480;2023-04-09T12:11:11;29.80;;;22.70;;
14681;SDS011;7429;52.498;13.480;2023-04-09T12:14:19;29.43;;;21.03;;
14681;SDS011;7429;52.498;13.480;2023-04-09T12:17:23;26.83;;;20.33;;
14681;SDS011;7429;52.498;13.480;2023-04-09T12:20:29;28.27;;;21.27;;
14681;SDS011;7429;52.498;13.480;2023-04-09T12:23:35;31.33;;;21.85;;
14681;SDS011;7429;52.498;13.480;2023-04-09T12:26:38;27.92;;;20.75;;
14681;SDS011;7429;52.498;13.480;2023-04-09T12:29:41;30.77;;;23.02;;
14681;SDS011;7429;52.498;13.480;2023-04-09T12:32:44;29.17;;;22.02;;
14681;SDS011;7429;52.498;13.480;2023-04-09T12:35:49;28.75;;;22.17;;
14681;SDS011;7429;52.498;13.480;2023-04-09T12:38:52;26.75;;;20.60;;
14681;SDS011;7429;52.498;13.480;2023-04-09T12:41:55;28.60;;;21.75;;
14681;SDS011;7429;52.498;13.480;2023-04-09T12:44:58;26.70;;;22.25;;
14681;SDS011;7429;52.498;13.480;2023-04-09T12:48:01;28.92;;;22.42;;
14681;SDS011;7429;52.498;13.480;2023-04-09T12:51:06;28.52;;;23.00;;
14681;SDS011;7429;52.498;13.480;2023-04-09T12:54:11;27.63;;;21.73;;
14681;SDS011;7429;52.498;13.480;2023-04-09T12:57:17;29.00;;;22.77;;
14681;SDS011;7429;52.498;13.480;2023-04-09T13:00:20;27.58;;;22.58;;
14681;SDS011;7429;52.498;13.480;2023-04-09T13:03:23;29.45;;;21.63;;
14681;SDS011;7429;52.498;13.480;2023-04-09T13:06:29;30.08;;;22.60;;
14681;SDS011;7429;52.498;13.480;2023-04-09T13:09:32;28.17;;;23.45;;
14681;SDS011;7429;52.498;13.480;2023-04-09T13:12:36;28.67;;;21.88;;
14681;SDS011;7429;52.498;13.480;2023-04-09T13:15:42;29.42;;;21.55;;
14681;SDS011;7429;52.498;13.480;2023-04-09T13:18:46;28.35;;;21.77;;
14681;SDS011;7429;52.498;13.480;2023-04-09T13:21:51;29.10;;;21.70;;
14681;SDS011;7429;52.498;13.480;2023-04-09T13:24:54;28.05;;;21.50;;
14681;SDS011;7429;52.498;13.480;2023-04-09T13:27:58;26.98;;;20.75;;
14681;SDS011;7429;52.498;13.480;2023-04-09T13:31:01;29.73;;;21.48;;
14681;SDS011;7429;52.498;13.480;2023-04-09T13:34:04;28.45;;;20.45;;
14681;SDS011;7429;52.498;13.480;2023-04-09T13:37:12;28.38;;;21.52;;
14681;SDS011;7429;52.498;13.480;2023-04-09T13:40:15;31.88;;;23.98;;
14681;SDS011;7429;52.498;13.480;2023-04-09T13:43:18;25.90;;;20.80;;
14681;SDS011;7429;52.498;13.480;2023-04-09T13:46:21;26.80;;;20.75;;
14681;SDS011;7429;52.498;13.480;2023-04-09T13:49:26;23.92;;;19.27;;
14681;SDS011;7429;52.498;13.480;2023-04-09T13:52:32;27.67;;;20.35;;
14681;SDS011;7429;52.498;13.480;2023-04-09T13:55:35;30.58;;;20.98;;
14681;SDS011;7429;52.498;13.480;2023-04-09T13:58:38;24.58;;;19.35;;
14681;SDS011;7429;52.498;13.480;2023-04-09T14:01:41;27.45;;;20.73;;
14681;SDS011;7429;52.498;13.480;2023-04-09T14:04:45;26.40;;;20.60;;
14681;SDS011;7429;52.498;13.480;2023-04-09T14:07:50;26.27;;;20.05;;
14681;SDS011;7429;52.498;13.480;2023-04-09T14:10:53;28.80;;;21.92;;
14681;SDS011;7429;52.498;13.480;2023-04-09T14:13:57;27.08;;;20.45;;
14681;SDS011;7429;52.498;13.480;2023-04-09T14:17:00;23.17;;;18.70;;
14681;SDS011;7429;52.498;13.480;2023-04-09T14:20:03;22.45;;;17.95;;
14681;SDS011;7429;52.498;13.480;2023-04-09T14:23:09;25.40;;;20.17;;
14681;SDS011;7429;52.498;13.480;2023-04-09T14:26:12;29.58;;;20.08;;
14681;SDS011;7429;52.498;13.480;2023-04-09T14:29:16;25.42;;;19.52;;
14681;SDS011;7429;52.498;13.480;2023-04-09T14:32:19;24.60;;;18.60;;
14681;SDS011;7429;52.498;13.480;2023-04-09T14:35:22;22.83;;;18.20;;
14681;SDS011;7429;52.498;13.480;2023-04-09T14:38:27;25.08;;;20.02;;
14681;SDS011;7429;52.498;13.480;2023-04-09T14:41:31;22.70;;;18.60;;
14681;SDS011;7429;52.498;13.480;2023-04-09T14:44:36;21.75;;;17.52;;
14681;SDS011;7429;52.498;13.480;2023-04-09T14:47:40;25.52;;;19.65;;
14681;SDS011;7429;52.498;13.480;2023-04-09T14:50:43;25.08;;;20.20;;
14681;SDS011;7429;52.498;13.480;2023-04-09T14:53:50;24.90;;;18.63;;
14681;SDS011;7429;52.498;13.480;2023-04-09T14:56:53;24.40;;;18.13;;
14681;SDS011;7429;52.498;13.480;2023-04-09T14:59:57;23.70;;;18.60;;
14681;SDS011;7429;52.498;13.480;2023-04-09T15:03:00;23.95;;;17.52;;
14681;SDS011;7429;52.498;13.480;2023-04-09T15:06:04;23.73;;;19.02;;
14681;SDS011;7429;52.498;13.480;2023-04-09T15:09:09;21.17;;;17.73;;
14681;SDS011;7429;52.498;13.480;2023-04-09T15:12:12;19.42;;;16.67;;
14681;SDS011;7429;52.498;13.480;2023-04-09T15:15:17;21.27;;;17.10;;
14681;SDS011;7429;52.498;13.480;2023-04-09T15:18:20;20.95;;;16.85;;
14681;SDS011;7429;52.498;13.480;2023-04-09T15:21:23;21.48;;;17.58;;
14681;SDS011;7429;52.498;13.480;2023-04-09T15:24:28;21.80;;;16.92;;
14681;SDS011;7429;52.498;13.480;2023-04-09T15:27:31;20.23;;;15.80;;
14681;SDS011;7429;52.498;13.480;2023-04-09T15:30:34;20.10;;;15.80;;
14681;SDS011;7429;52.498;13.480;2023-04-09T15:33:37;19.65;;;16.27;;
14681;SDS011;7429;52.498;13.480;2023-04-09T15:36:44;19.20;;;15.38;;
14681;SDS011;7429;52.498;13.480;2023-04-09T15:39:48;22.52;;;18.02;;
14681;SDS011;7429;52.498;13.480;2023-04-09T15:42:51;21.67;;;17.10;;
14681;SDS011;7429;52.498;13.480;2023-04-09T15:45:55;22.27;;;16.48;;
14681;SDS011;7429;52.498;13.480;2023-04-09T15:48:58;20.95;;;16.50;;
14681;SDS011;7429;52.498;13.480;2023-04-09T15:52:01;19.45;;;15.77;;
14681;SDS011;7429;52.498;13.480;2023-04-09T15:55:06;22.35;;;18.10;;
14681;SDS011;7429;52.498;13.480;2023-04-09T15:58:10;21.30;;;17.02;;
14681;SDS011;7429;52.498;13.480;2023-04-09T16:01:13;25.50;;;19.55;;
14681;SDS011;7429;52.498;13.480;2023-04-09T16:04:17;28.40;;;21.15;;
14681;SDS011;7429;52.498;13.480;2023-04-09T16:07:20;26.17;;;19.50;;
14681;SDS011;7429;52.498;13.480;2023-04-09T16:10:25;25.93;;;19.90;;
14681;SDS011;7429;52.498;13.480;2023-04-09T16:13:28;26.80;;;19.10;;
14681;SDS011;7429;52.498;13.480;2023-04-09T16:16:31;26.90;;;19.20;;
14681;SDS011;7429;52.498;13.480;2023-04-09T16:19:34;23.13;;;18.33;;
14681;SDS011;7429;52.498;13.480;2023-04-09T16:22:37;23.40;;;17.33;;
14681;SDS011;7429;52.498;13.480;2023-04-09T16:25:42;22.10;;;16.80;;
14681;SDS011;7429;52.498;13.480;2023-04-09T16:28:45;21.10;;;16.40;;
14681;SDS011;7429;52.498;13.480;2023-04-09T16:31:49;19.17;;;14.17;;
14681;SDS011;7429;52.498;13.480;2023-04-09T16:34:53;20.80;;;15.70;;
14681;SDS011;7429;52.498;13.480;2023-04-09T16:37:56;21.20;;;16.13;;
14681;SDS011;7429;52.498;13.480;2023-04-09T16:41:01;19.87;;;15.87;;
14681;SDS011;7429;52.498;13.480;2023-04-09T16:44:04;20.83;;;15.67;;
14681;SDS011;7429;52.498;13.480;2023-04-09T16:47:07;20.17;;;16.20;;
14681;SDS011;7429;52.498;13.480;2023-04-09T16:50:11;19.40;;;15.87;;
14681;SDS011;7429;52.498;13.480;2023-04-09T16:53:14;19.87;;;15.73;;
14681;SDS011;7429;52.498;13.480;2023-04-09T16:56:18;18.53;;;15.60;;
14681;SDS011;7429;52.498;13.480;2023-04-09T16:59:21;20.20;;;16.17;;
14681;SDS011;7429;52.498;13.480;2023-04-09T17:02:24;20.27;;;16.33;;
14681;SDS011;7429;52.498;13.480;2023-04-09T17:05:28;28.17;;;23.10;;
14681;SDS011;7429;52.498;13.480;2023-04-09T17:08:33;26.67;;;19.43;;
14681;SDS011;7429;52.498;13.480;2023-04-09T17:11:38;70.40;;;59.93;;
14681;SDS011;7429;52.498;13.480;2023-04-09T17:14:41;25.77;;;18.60;;
14681;SDS011;7429;52.498;13.480;2023-04-09T17:17:44;30.20;;;24.70;;
14681;SDS011;7429;52.498;13.480;2023-04-09T17:20:49;26.17;;;18.80;;
14681;SDS011;7429;52.498;13.480;2023-04-09T17:23:54;25.77;;;18.83;;
14681;SDS011;7429;52.498;13.480;2023-04-09T17:26:58;24.83;;;19.50;;
14681;SDS011;7429;52.498;13.480;2023-04-09T17:30:01;26.47;;;23.30;;
14681;SDS011;7429;52.498;13.480;2023-04-09T17:33:07;27.93;;;22.97;;
14681;SDS011;7429;52.498;13.480;2023-04-09T17:36:10;28.87;;;22.07;;
14681;SDS011;7429;52.498;13.480;2023-04-09T17:39:13;28.87;;;21.33;;
14681;SDS011;7429;52.498;13.480;2023-04-09T17:42:18;25.13;;;20.23;;
14681;SDS011;7429;52.498;13.480;2023-04-09T17:45:22;27.30;;;22.20;;
14681;SDS011;7429;52.498;13.480;2023-04-09T17:48:25;27.57;;;20.77;;
14681;SDS011;7429;52.498;13.480;2023-04-09T17:51:31;28.23;;;21.90;;
14681;SDS011;7429;52.498;13.480;2023-04-09T17:54:34;26.90;;;21.80;;
14681;SDS011;7429;52.498;13.480;2023-04-09T17:57:40;27.13;;;21.27;;
14681;SDS011;7429;52.498;13.480;2023-04-09T18:00:43;29.77;;;22.70;;
14681;SDS011;7429;52.498;13.480;2023-04-09T18:03:46;29.53;;;22.37;;
14681;SDS011;7429;52.498;13.480;2023-04-09T18:06:50;29.47;;;22.10;;